createdAt,value
2022-10-07T00:01:17.310Z,101443.09
2022-10-07T00:06:22.727Z,101437.13
2022-10-07T00:11:28.193Z,101435.02
2022-10-07T00:16:34.348Z,101434.59
2022-10-07T00:21:39.535Z,101434.95
2022-10-07T00:26:42.435Z,101434.81
2022-10-07T00:31:45.341Z,101436.39
2022-10-07T00:36:50.801Z,101430.12
2022-10-07T00:41:53.701Z,101427.13
2022-10-07T00:46:59.111Z,101422.63
2022-10-07T00:52:02.071Z,101421.34
2022-10-07T00:57:05.687Z,101421.85
2022-10-07T01:02:09.171Z,101423.84
2022-10-07T01:07:12.217Z,101421.66
2022-10-07T01:12:23.827Z,101418.64
2022-10-07T01:17:40.725Z,101416.17
2022-10-07T01:23:10.494Z,101417.80
2022-10-07T01:28:26.177Z,101418.10
2022-10-07T01:33:32.583Z,101419.75
2022-10-07T01:38:40.313Z,101416.94
2022-10-07T01:43:45.660Z,101414.67
2022-10-07T01:48:48.872Z,101413.48
2022-10-07T01:54:16.254Z,101408.93
2022-10-07T01:59:45.022Z,101402.09
2022-10-07T02:04:59.346Z,101397.04
2022-10-07T02:10:39.820Z,101403.77
2022-10-07T02:15:48.822Z,101403.31
2022-10-07T02:20:53.725Z,101406.52
2022-10-07T02:25:56.832Z,101398.90
2022-10-07T02:31:04.198Z,101403.58
2022-10-07T02:36:16.973Z,101404.11
2022-10-07T02:41:43.022Z,101402.98
2022-10-07T02:46:53.816Z,101408.57
2022-10-07T02:52:19.243Z,101403.71
2022-10-07T02:57:24.910Z,101401.11
2022-10-07T03:02:35.497Z,101398.21
2022-10-07T03:07:38.707Z,101400.48
2022-10-07T03:12:42.431Z,101402.91
2022-10-07T03:17:45.422Z,101402.38
2022-10-07T03:22:48.756Z,101404.29
2022-10-07T03:27:54.322Z,101405.79
2022-10-07T03:32:57.734Z,101397.06
2022-10-07T03:38:01.667Z,101403.17
2022-10-07T03:43:05.751Z,101401.89
2022-10-07T03:48:08.498Z,101399.66
2022-10-07T03:53:11.299Z,101388.45
2022-10-07T03:58:14.202Z,101381.94
2022-10-07T04:03:18.884Z,101389.50
2022-10-07T04:08:21.959Z,101383.86
2022-10-07T04:13:25.720Z,101381.14
2022-10-07T04:18:28.791Z,101378.67
2022-10-07T04:23:31.694Z,101375.79
2022-10-07T04:28:34.577Z,101371.46
2022-10-07T04:33:41.379Z,101373.74
2022-10-07T04:38:50.997Z,101374.52
2022-10-07T04:43:57.630Z,101374.73
2022-10-07T04:49:00.860Z,101379.91
2022-10-07T04:54:04.170Z,101382.49
2022-10-07T04:59:06.972Z,101386.33
2022-10-07T05:04:10.798Z,101387.25
2022-10-07T05:09:13.702Z,101379.73
2022-10-07T05:14:20.293Z,101378.05
2022-10-07T05:19:23.197Z,101372.64
2022-10-07T05:24:25.998Z,101370.75
2022-10-07T05:29:28.909Z,101374.93
2022-10-07T05:34:32.115Z,101375.06
2022-10-07T05:39:35.018Z,101372.27
2022-10-07T05:44:38.026Z,101370.45
2022-10-07T05:49:41.646Z,101375.49
2022-10-07T05:54:44.451Z,101370.55
2022-10-07T05:59:47.353Z,101378.40
2022-10-07T06:04:50.257Z,101373.70
2022-10-07T06:10:11.697Z,101374.13
2022-10-07T06:15:14.600Z,101384.25
2022-10-07T06:20:17.401Z,101389.39
2022-10-07T06:25:52.334Z,101392.31
2022-10-07T06:30:55.225Z,101394.75
2022-10-07T06:36:00.994Z,101402.40
2022-10-07T06:41:07.316Z,101407.61
2022-10-07T06:46:15.754Z,101406.40
2022-10-07T06:51:20.475Z,101409.23
2022-10-07T06:56:23.915Z,101407.83
2022-10-07T07:01:27.021Z,101408.52
2022-10-07T07:06:30.587Z,101412.16
2022-10-07T07:11:37.441Z,101415.77
2022-10-07T07:16:40.816Z,101422.14
2022-10-07T07:21:46.495Z,101420.41
2022-10-07T07:26:50.975Z,101414.66
2022-10-07T07:31:54.121Z,101414.36
2022-10-07T07:36:57.390Z,101411.95
2022-10-07T07:42:00.192Z,101406.56
2022-10-07T07:47:03.097Z,101411.30
2022-10-07T07:52:06.209Z,101410.42
2022-10-07T07:57:10.093Z,101404.34
2022-10-07T08:02:13.001Z,101403.69
2022-10-07T08:07:16.636Z,101406.38
2022-10-07T08:12:21.943Z,101403.55
2022-10-07T08:17:24.931Z,101402.61
2022-10-07T08:22:27.662Z,101402.17
2022-10-07T08:27:30.532Z,101399.79
2022-10-07T08:32:33.334Z,101395.70
2022-10-07T08:37:36.350Z,101397.05
2022-10-07T08:42:43.343Z,101396.02
2022-10-07T08:47:48.355Z,101392.60
2022-10-07T08:52:59.480Z,101385.14
2022-10-07T08:58:04.648Z,101375.05
2022-10-07T09:03:24.144Z,101375.79
2022-10-07T09:08:34.366Z,101365.58
2022-10-07T09:13:41.011Z,101357.91
2022-10-07T09:19:00.809Z,101347.79
2022-10-07T09:24:26.248Z,101345.52
2022-10-07T09:29:30.900Z,101338.22
2022-10-07T09:34:33.695Z,101334.27
2022-10-07T09:39:37.462Z,101333.81
2022-10-07T09:44:40.423Z,101334.19
2022-10-07T09:49:46.478Z,101314.39
2022-10-07T09:54:52.166Z,101310.78
2022-10-07T10:00:13.505Z,101310.05
2022-10-07T10:05:27.399Z,101303.24
2022-10-07T10:10:32.010Z,101297.78
2022-10-07T10:15:42.488Z,101294.01
2022-10-07T10:20:46.629Z,101292.06
2022-10-07T10:26:28.309Z,101289.88
2022-10-07T10:31:42.815Z,101278.02
2022-10-07T10:36:55.380Z,101270.25
2022-10-07T10:42:07.853Z,101268.05
2022-10-07T10:47:43.263Z,101265.30
2022-10-07T10:53:03.248Z,101250.77
2022-10-07T10:58:44.449Z,101243.50
2022-10-07T11:04:12.236Z,101239.32
2022-10-07T11:09:19.959Z,101229.02
2022-10-07T11:14:25.606Z,101221.27
2022-10-07T11:19:36.600Z,101209.08
2022-10-07T11:24:44.921Z,101191.54
2022-10-07T11:30:03.111Z,101191.38
2022-10-07T11:35:25.783Z,101182.15
2022-10-07T11:40:32.477Z,101175.64
2022-10-07T11:45:44.158Z,101161.57
2022-10-07T11:51:02.960Z,101148.75
2022-10-07T11:56:16.679Z,101139.66
2022-10-07T12:01:25.566Z,101139.35
2022-10-07T12:06:28.781Z,101120.29
2022-10-07T12:11:37.515Z,101119.95
2022-10-07T12:16:47.792Z,101102.52
2022-10-07T12:21:59.792Z,101097.63
2022-10-07T12:27:20.232Z,101084.02
2022-10-07T12:33:00.943Z,101077.44
2022-10-07T12:38:17.244Z,101068.17
2022-10-07T12:43:34.679Z,101063.55
2022-10-07T12:48:45.681Z,101053.45
2022-10-07T12:53:51.033Z,101043.88
2022-10-07T12:59:20.152Z,101031.91
2022-10-07T13:04:49.891Z,101025.85
2022-10-07T13:10:11.100Z,101013.81
2022-10-07T13:15:41.572Z,101006.27
2022-10-07T13:21:03.022Z,101001.44
2022-10-07T13:26:07.248Z,100995.99
2022-10-07T13:31:16.994Z,100988.02
2022-10-07T13:36:21.861Z,100976.94
2022-10-07T13:41:30.293Z,100971.31
2022-10-07T13:46:36.030Z,100957.41
2022-10-07T13:51:42.035Z,100954.33
2022-10-07T13:56:45.820Z,100940.77
2022-10-07T14:01:54.462Z,100933.93
2022-10-07T14:07:02.018Z,100923.80
2022-10-07T14:12:12.802Z,100919.11
2022-10-07T14:17:27.515Z,100907.84
2022-10-07T14:22:36.125Z,100897.88
2022-10-07T14:27:53.163Z,100885.96
2022-10-07T14:33:16.965Z,100878.52
2022-10-07T14:38:26.701Z,100867.08
2022-10-07T14:43:33.010Z,100861.83
2022-10-07T14:48:36.319Z,100861.75
2022-10-07T14:53:42.296Z,100845.45
2022-10-07T14:58:45.095Z,100833.60
2022-10-07T15:03:48.858Z,100830.23
2022-10-07T15:08:52.447Z,100819.67
2022-10-07T15:13:55.348Z,100812.16
2022-10-07T15:18:58.149Z,100803.85
2022-10-07T15:24:04.438Z,100797.89
2022-10-07T15:29:08.050Z,100795.30
2022-10-07T15:34:11.467Z,100791.42
2022-10-07T15:39:14.372Z,100781.57
2022-10-07T15:44:20.449Z,100778.60
2022-10-07T15:49:23.253Z,100774.15
2022-10-07T15:54:26.052Z,100766.38
2022-10-07T15:59:29.061Z,100758.59
2022-10-07T16:04:32.168Z,100757.38
2022-10-07T16:09:34.976Z,100748.69
2022-10-07T16:14:37.773Z,100744.67
2022-10-07T16:19:40.574Z,100745.00
2022-10-07T16:24:43.375Z,100741.69
2022-10-07T16:30:05.122Z,100738.92
2022-10-07T16:35:09.771Z,100734.48
2022-10-07T16:40:12.671Z,100729.58
2022-10-07T16:45:16.502Z,100728.17
2022-10-07T16:50:21.144Z,100722.10
2022-10-07T16:55:23.944Z,100723.29
2022-10-07T17:00:27.390Z,100720.23
2022-10-07T17:05:30.264Z,100726.89
2022-10-07T17:10:33.168Z,100724.86
2022-10-07T17:15:40.120Z,100722.96
2022-10-07T17:20:50.125Z,100716.25
2022-10-07T17:25:54.479Z,100718.31
2022-10-07T17:31:04.285Z,100712.11
2022-10-07T17:36:09.415Z,100705.11
2022-10-07T17:41:17.943Z,100702.41
2022-10-07T17:46:21.015Z,100702.22
2022-10-07T17:51:28.150Z,100697.11
2022-10-07T17:56:32.158Z,100694.45
2022-10-07T18:01:35.962Z,100683.67
2022-10-07T18:06:39.961Z,100681.66
2022-10-07T18:12:01.473Z,100678.32
2022-10-07T18:17:06.014Z,100670.29
2022-10-07T18:22:09.656Z,100664.77
2022-10-07T18:27:13.032Z,100660.77
2022-10-07T18:32:15.853Z,100655.67
2022-10-07T18:37:18.653Z,100649.55
2022-10-07T18:42:21.455Z,100646.44
2022-10-07T18:47:24.258Z,100642.10
2022-10-07T18:52:27.778Z,100637.18
2022-10-07T18:57:30.683Z,100632.65
2022-10-07T19:02:34.815Z,100627.22
2022-10-07T19:07:37.615Z,100625.06
2022-10-07T19:13:00.695Z,100622.56
2022-10-07T19:18:03.699Z,100621.56
2022-10-07T19:23:09.882Z,100614.71
2022-10-07T19:28:12.986Z,100609.65
2022-10-07T19:33:16.819Z,100606.50
2022-10-07T19:38:19.825Z,100602.02
2022-10-07T19:43:22.643Z,100592.30
2022-10-07T19:48:26.041Z,100587.17
2022-10-07T19:53:34.045Z,100584.25
2022-10-07T19:58:38.608Z,100586.07
2022-10-07T20:03:41.512Z,100588.54
2022-10-07T20:08:46.875Z,100588.10
2022-10-07T20:13:49.982Z,100587.69
2022-10-07T20:19:01.794Z,100580.92
2022-10-07T20:24:05.989Z,100574.49
2022-10-07T20:29:10.474Z,100570.70
2022-10-07T20:34:16.653Z,100565.90
2022-10-07T20:39:39.624Z,100563.23
2022-10-07T20:44:42.631Z,100558.31
2022-10-07T20:49:45.742Z,100552.36
2022-10-07T20:54:49.776Z,100547.28
2022-10-07T20:59:53.599Z,100543.50
2022-10-07T21:04:56.614Z,100537.23
2022-10-07T21:09:59.609Z,100530.54
2022-10-07T21:15:04.157Z,100525.17
2022-10-07T21:20:07.643Z,100524.60
2022-10-07T21:25:12.140Z,100523.66
2022-10-07T21:30:15.220Z,100514.23
2022-10-07T21:35:18.125Z,100511.73
2022-10-07T21:40:21.438Z,100503.46
2022-10-07T21:45:24.242Z,100500.45
2022-10-07T21:50:27.044Z,100493.79
2022-10-07T21:55:29.847Z,100488.80
2022-10-07T22:00:36.138Z,100484.72
2022-10-07T22:05:40.472Z,100474.98
2022-10-07T22:10:43.473Z,100472.30
2022-10-07T22:15:46.331Z,100467.33
2022-10-07T22:20:49.190Z,100467.48
2022-10-07T22:25:52.903Z,100458.91
2022-10-07T22:30:55.852Z,100447.71
2022-10-07T22:35:59.529Z,100440.54
2022-10-07T22:41:08.064Z,100427.56
2022-10-07T22:46:16.752Z,100421.80
2022-10-07T22:51:20.035Z,100419.79
2022-10-07T22:56:25.176Z,100419.64
2022-10-07T23:01:31.359Z,100408.02
2022-10-07T23:06:36.252Z,100394.34
2022-10-07T23:11:39.109Z,100389.61
2022-10-07T23:16:42.117Z,100385.17
2022-10-07T23:21:44.917Z,100377.92
2022-10-07T23:26:47.721Z,100372.23
2022-10-07T23:31:50.520Z,100369.52
2022-10-07T23:36:55.286Z,100360.12
2022-10-07T23:41:58.071Z,100349.37
2022-10-07T23:47:00.870Z,100345.18
2022-10-07T23:52:03.877Z,100339.58
2022-10-07T23:57:06.681Z,100336.23
